createdAt,value
2023-05-13T00:01:05.112Z,14.04
2023-05-13T00:03:37.057Z,14.04
2023-05-13T00:06:11.877Z,14.01
2023-05-13T00:08:43.837Z,14.01
2023-05-13T00:11:15.563Z,13.98
2023-05-13T00:13:47.366Z,14.01
2023-05-13T00:16:19.097Z,13.94
2023-05-13T00:18:51.624Z,13.92
2023-05-13T00:21:23.873Z,13.84
2023-05-13T00:23:55.932Z,13.83
2023-05-13T00:26:28.162Z,13.86
2023-05-13T00:29:00.321Z,13.89
2023-05-13T00:31:32.872Z,13.92
2023-05-13T00:34:09.167Z,13.90
2023-05-13T00:36:40.912Z,13.84
2023-05-13T00:39:14.598Z,13.79
2023-05-13T00:41:46.338Z,13.81
2023-05-13T00:44:18.278Z,13.77
2023-05-13T00:46:50.323Z,13.61
2023-05-13T00:49:22.373Z,13.58
2023-05-13T00:51:55.324Z,13.48
2023-05-13T00:54:28.487Z,13.44
2023-05-13T00:57:00.698Z,13.47
2023-05-13T00:59:32.466Z,13.44
2023-05-13T01:02:18.151Z,13.47
2023-05-13T01:05:03.190Z,13.44
2023-05-13T01:07:53.331Z,13.42
2023-05-13T01:10:49.759Z,13.40
2023-05-13T01:13:27.637Z,13.36
2023-05-13T01:16:20.837Z,13.40
2023-05-13T01:18:56.692Z,13.45
2023-05-13T01:21:29.312Z,13.48
2023-05-13T01:24:06.402Z,13.43
2023-05-13T01:26:38.335Z,13.44
2023-05-13T01:29:10.287Z,13.43
2023-05-13T01:31:43.046Z,13.43
2023-05-13T01:34:16.097Z,13.45
2023-05-13T01:36:51.092Z,13.40
2023-05-13T01:39:25.577Z,13.40
2023-05-13T01:42:00.284Z,13.39
2023-05-13T01:44:32.929Z,13.22
2023-05-13T01:47:05.032Z,13.11
2023-05-13T01:49:38.413Z,13.05
2023-05-13T01:52:11.940Z,13.06
2023-05-13T01:54:43.711Z,13.06
2023-05-13T01:57:18.541Z,13.07
2023-05-13T01:59:51.159Z,13.07
2023-05-13T02:02:23.060Z,13.02
2023-05-13T02:04:54.776Z,13.00
2023-05-13T02:07:29.988Z,13.00
2023-05-13T02:10:02.154Z,12.96
2023-05-13T02:12:33.930Z,12.99
2023-05-13T02:15:06.448Z,13.04
2023-05-13T02:17:41.349Z,13.05
2023-05-13T02:20:14.442Z,13.07
2023-05-13T02:22:46.312Z,13.11
2023-05-13T02:25:18.062Z,13.08
2023-05-13T02:27:49.788Z,13.03
2023-05-13T02:30:22.025Z,13.05
2023-05-13T02:32:55.030Z,12.89
2023-05-13T02:35:30.912Z,12.85
2023-05-13T02:38:07.970Z,12.88
2023-05-13T02:40:44.039Z,12.86
2023-05-13T02:43:16.482Z,12.84
2023-05-13T02:45:56.076Z,12.90
2023-05-13T02:48:27.992Z,12.72
2023-05-13T02:50:59.682Z,12.72
2023-05-13T02:53:31.961Z,12.73
2023-05-13T02:56:11.525Z,12.75
2023-05-13T02:58:43.442Z,12.76
2023-05-13T03:01:18.244Z,12.71
2023-05-13T03:03:50.177Z,12.66
2023-05-13T03:06:22.001Z,12.70
2023-05-13T03:08:59.955Z,12.57
2023-05-13T03:11:34.844Z,12.50
2023-05-13T03:14:08.629Z,12.49
2023-05-13T03:16:41.302Z,12.50
2023-05-13T03:19:16.055Z,12.43
2023-05-13T03:21:48.605Z,12.44
2023-05-13T03:24:23.473Z,12.46
2023-05-13T03:26:58.449Z,12.41
2023-05-13T03:29:30.354Z,12.44
2023-05-13T03:32:06.493Z,12.46
2023-05-13T03:34:38.582Z,12.49
2023-05-13T03:37:11.704Z,12.52
2023-05-13T03:39:43.422Z,12.59
2023-05-13T03:42:15.287Z,12.54
2023-05-13T03:44:51.433Z,12.52
2023-05-13T03:47:26.657Z,12.51
2023-05-13T03:50:06.989Z,12.51
2023-05-13T03:52:46.988Z,12.50
2023-05-13T03:55:20.626Z,12.49
2023-05-13T03:57:52.351Z,12.51
2023-05-13T04:00:26.033Z,12.54
2023-05-13T04:02:59.208Z,12.53
2023-05-13T04:05:32.380Z,12.55
2023-05-13T04:08:04.207Z,12.56
2023-05-13T04:10:35.974Z,12.63
2023-05-13T04:13:07.878Z,12.60
2023-05-13T04:15:44.042Z,12.64
2023-05-13T04:18:15.752Z,12.62
2023-05-13T04:20:47.532Z,12.66
2023-05-13T04:23:25.649Z,12.69
2023-05-13T04:25:57.402Z,12.73
2023-05-13T04:28:32.232Z,12.71
2023-05-13T04:31:06.206Z,12.72
2023-05-13T04:33:41.834Z,12.71
2023-05-13T04:36:16.311Z,12.64
2023-05-13T04:38:49.028Z,12.60
2023-05-13T04:41:22.164Z,12.53
2023-05-13T04:43:57.304Z,12.55
2023-05-13T04:46:29.043Z,12.63
2023-05-13T04:49:01.141Z,12.66
2023-05-13T04:51:33.327Z,12.68
2023-05-13T04:54:06.206Z,12.77
2023-05-13T04:56:38.856Z,12.86
2023-05-13T04:59:10.654Z,12.94
2023-05-13T05:01:43.304Z,12.90
2023-05-13T05:04:15.620Z,12.88
2023-05-13T05:06:48.768Z,12.99
2023-05-13T05:09:22.215Z,13.07
2023-05-13T05:11:56.561Z,13.08
2023-05-13T05:14:31.877Z,13.09
2023-05-13T05:17:04.473Z,13.13
2023-05-13T05:19:36.600Z,13.11
2023-05-13T05:22:08.372Z,13.17
2023-05-13T05:24:40.325Z,13.22
2023-05-13T05:27:19.321Z,13.25
2023-05-13T05:29:51.130Z,13.23
2023-05-13T05:32:28.112Z,13.21
2023-05-13T05:35:03.864Z,13.37
2023-05-13T05:37:41.671Z,13.45
2023-05-13T05:40:13.736Z,13.64
2023-05-13T05:42:47.094Z,13.81
2023-05-13T05:45:20.274Z,14.01
2023-05-13T05:47:54.144Z,14.21
2023-05-13T05:50:27.586Z,14.41
2023-05-13T05:53:00.434Z,14.55
2023-05-13T05:55:34.059Z,14.63
2023-05-13T05:58:14.469Z,14.67
2023-05-13T06:00:46.618Z,14.51
2023-05-13T06:03:18.628Z,14.43
2023-05-13T06:05:51.031Z,14.56
2023-05-13T06:08:29.963Z,14.48
2023-05-13T06:11:04.971Z,14.51
2023-05-13T06:13:37.012Z,14.38
2023-05-13T06:16:10.309Z,14.52
2023-05-13T06:18:44.446Z,14.63
2023-05-13T06:21:17.029Z,14.73
2023-05-13T06:23:49.303Z,14.66
2023-05-13T06:26:21.111Z,14.57
2023-05-13T06:28:52.924Z,14.62
2023-05-13T06:31:27.675Z,14.69
2023-05-13T06:33:59.493Z,14.73
2023-05-13T06:36:31.891Z,14.79
2023-05-13T06:39:04.086Z,14.92
2023-05-13T06:41:38.407Z,14.88
2023-05-13T06:44:18.459Z,14.82
2023-05-13T06:46:51.840Z,14.84
2023-05-13T06:49:27.916Z,14.85
2023-05-13T06:52:00.000Z,14.80
2023-05-13T06:54:34.872Z,14.84
2023-05-13T06:57:07.429Z,14.86
2023-05-13T06:59:41.867Z,14.86
2023-05-13T07:02:18.580Z,14.78
2023-05-13T07:04:50.406Z,14.73
2023-05-13T07:07:22.155Z,14.71
2023-05-13T07:09:57.889Z,14.65
2023-05-13T07:12:31.705Z,14.69
2023-05-13T07:15:03.634Z,14.85
2023-05-13T07:17:35.653Z,14.96
2023-05-13T07:20:08.797Z,14.92
2023-05-13T07:22:43.566Z,14.93
2023-05-13T07:25:15.396Z,14.84
2023-05-13T07:27:47.900Z,14.79
2023-05-13T07:30:22.893Z,14.71
2023-05-13T07:32:54.923Z,14.76
2023-05-13T07:35:29.554Z,14.82
2023-05-13T07:38:02.252Z,14.81
2023-05-13T07:40:34.480Z,14.71
2023-05-13T07:43:06.368Z,14.77
2023-05-13T07:45:39.332Z,14.78
2023-05-13T07:48:11.203Z,14.72
2023-05-13T07:50:43.093Z,14.67
2023-05-13T07:53:20.330Z,14.53
2023-05-13T07:55:52.325Z,14.57
2023-05-13T07:58:24.154Z,14.51
2023-05-13T08:00:56.016Z,14.39
2023-05-13T08:03:27.879Z,14.48
2023-05-13T08:06:00.064Z,14.47
2023-05-13T08:08:33.251Z,14.51
2023-05-13T08:11:10.294Z,14.46
2023-05-13T08:13:42.174Z,14.48
2023-05-13T08:16:14.973Z,14.50
2023-05-13T08:18:47.379Z,14.38
2023-05-13T08:21:19.162Z,14.34
2023-05-13T08:23:52.049Z,14.38
2023-05-13T08:26:25.817Z,14.50
2023-05-13T08:28:58.011Z,14.63
2023-05-13T08:31:34.574Z,14.69
2023-05-13T08:34:09.508Z,14.81
2023-05-13T08:36:41.306Z,14.86
2023-05-13T08:39:13.356Z,14.92
2023-05-13T08:41:46.354Z,14.92
2023-05-13T08:44:19.095Z,14.69
2023-05-13T08:47:02.148Z,14.67
2023-05-13T08:49:34.816Z,14.70
2023-05-13T08:52:06.692Z,14.67
2023-05-13T08:54:43.019Z,14.74
2023-05-13T08:57:16.894Z,14.71
2023-05-13T08:59:53.763Z,14.77
2023-05-13T09:02:25.793Z,14.75
2023-05-13T09:05:02.290Z,14.77
2023-05-13T09:07:39.540Z,14.82
2023-05-13T09:10:11.413Z,14.67
2023-05-13T09:12:49.107Z,14.66
2023-05-13T09:15:22.082Z,14.67
2023-05-13T09:18:18.666Z,14.66
2023-05-13T09:20:53.557Z,14.63
2023-05-13T09:23:25.480Z,14.60
2023-05-13T09:25:57.211Z,14.56
2023-05-13T09:28:29.033Z,14.54
2023-05-13T09:31:00.867Z,14.50
2023-05-13T09:33:32.867Z,14.53
2023-05-13T09:36:05.999Z,14.56
2023-05-13T09:38:39.238Z,14.51
2023-05-13T09:41:11.318Z,14.47
2023-05-13T09:43:45.926Z,14.51
2023-05-13T09:46:17.614Z,14.53
2023-05-13T09:48:55.743Z,14.58
2023-05-13T09:51:32.128Z,14.57
2023-05-13T09:54:07.347Z,14.50
2023-05-13T09:56:39.115Z,14.46
2023-05-13T09:59:11.252Z,14.46
2023-05-13T10:01:43.876Z,14.48
2023-05-13T10:04:15.860Z,14.43
2023-05-13T10:06:49.345Z,14.48
2023-05-13T10:09:22.438Z,14.35
2023-05-13T10:11:56.000Z,14.38
2023-05-13T10:14:28.227Z,14.38
2023-05-13T10:17:00.676Z,14.35
2023-05-13T10:19:33.116Z,14.33
2023-05-13T10:22:05.948Z,14.29
2023-05-13T10:24:39.098Z,14.27
2023-05-13T10:27:12.463Z,14.41
2023-05-13T10:29:45.482Z,14.44
2023-05-13T10:32:17.513Z,14.45
2023-05-13T10:34:50.545Z,14.49
2023-05-13T10:37:58.613Z,14.62
2023-05-13T10:40:49.675Z,14.70
2023-05-13T10:43:23.194Z,14.75
2023-05-13T10:46:14.072Z,14.92
2023-05-13T10:48:51.297Z,14.95
2023-05-13T10:51:26.015Z,14.95
2023-05-13T10:53:59.117Z,15.03
2023-05-13T10:56:30.926Z,15.16
2023-05-13T10:59:05.179Z,15.34
2023-05-13T11:01:45.970Z,15.37
2023-05-13T11:04:20.570Z,15.39
2023-05-13T11:06:53.014Z,15.46
2023-05-13T11:09:28.927Z,15.53
2023-05-13T11:12:01.319Z,15.61
2023-05-13T11:14:33.034Z,15.55
2023-05-13T11:17:04.799Z,15.53
2023-05-13T11:19:37.745Z,15.48
2023-05-13T11:22:13.747Z,15.49
2023-05-13T11:24:46.598Z,15.53
2023-05-13T11:27:20.446Z,15.62
2023-05-13T11:30:00.784Z,15.62
2023-05-13T11:32:51.045Z,15.48
2023-05-13T11:35:31.538Z,15.52
2023-05-13T11:38:04.230Z,15.58
2023-05-13T11:40:37.680Z,15.64
2023-05-13T11:43:09.931Z,15.68
2023-05-13T11:45:42.329Z,15.73
2023-05-13T11:48:23.279Z,15.75
2023-05-13T11:50:57.346Z,15.79
2023-05-13T11:53:30.349Z,15.72
2023-05-13T11:56:10.957Z,15.73
2023-05-13T11:58:42.727Z,15.77
2023-05-13T12:01:15.103Z,15.80
2023-05-13T12:03:47.624Z,15.86
2023-05-13T12:06:19.428Z,15.91
2023-05-13T12:08:51.241Z,16.02
2023-05-13T12:11:24.187Z,15.97
2023-05-13T12:13:56.223Z,16.03
2023-05-13T12:16:28.478Z,16.04
2023-05-13T12:19:04.776Z,15.96
2023-05-13T12:21:38.422Z,15.90
2023-05-13T12:24:22.788Z,15.91
2023-05-13T12:27:04.914Z,15.83
2023-05-13T12:29:43.718Z,15.85
2023-05-13T12:32:16.910Z,15.85
2023-05-13T12:34:51.798Z,15.94
2023-05-13T12:37:25.245Z,16.04
2023-05-13T12:40:12.668Z,15.94
2023-05-13T12:42:47.533Z,15.90
2023-05-13T12:45:19.434Z,15.95
2023-05-13T12:47:52.542Z,15.88
2023-05-13T12:50:24.874Z,16.00
2023-05-13T12:52:57.972Z,16.04
2023-05-13T12:55:30.036Z,16.04
2023-05-13T12:58:03.399Z,15.96
2023-05-13T13:00:35.744Z,15.97
2023-05-13T13:03:08.201Z,16.07
2023-05-13T13:05:40.428Z,16.15
2023-05-13T13:08:12.164Z,16.25
2023-05-13T13:10:44.037Z,16.33
2023-05-13T13:13:15.906Z,16.49
2023-05-13T13:15:47.638Z,16.56
2023-05-13T13:18:19.515Z,16.56
2023-05-13T13:20:54.963Z,16.60
2023-05-13T13:23:26.686Z,16.73
2023-05-13T13:26:01.346Z,16.87
2023-05-13T13:28:33.562Z,16.89
2023-05-13T13:31:05.448Z,16.91
2023-05-13T13:33:37.226Z,16.81
2023-05-13T13:36:09.102Z,16.80
2023-05-13T13:38:40.797Z,16.88
2023-05-13T13:41:12.532Z,16.92
2023-05-13T13:43:44.283Z,16.95
2023-05-13T13:46:16.138Z,16.98
2023-05-13T13:48:47.909Z,16.90
2023-05-13T13:51:19.640Z,16.82
2023-05-13T13:53:51.402Z,16.71
2023-05-13T13:56:23.292Z,16.66
2023-05-13T13:58:55.372Z,16.53
2023-05-13T14:01:30.232Z,16.50
2023-05-13T14:04:16.720Z,16.48
2023-05-13T14:06:48.801Z,16.47
2023-05-13T14:09:21.624Z,16.46
2023-05-13T14:11:53.384Z,16.42
2023-05-13T14:14:25.133Z,16.39
2023-05-13T14:16:56.929Z,16.36
2023-05-13T14:19:28.722Z,16.28
2023-05-13T14:22:00.677Z,16.34
2023-05-13T14:24:32.442Z,16.38
2023-05-13T14:27:04.523Z,16.41
2023-05-13T14:29:36.253Z,16.42
2023-05-13T14:32:08.073Z,16.38
2023-05-13T14:34:39.844Z,16.38
2023-05-13T14:37:11.875Z,16.39
2023-05-13T14:39:43.600Z,16.44
2023-05-13T14:42:15.367Z,16.34
2023-05-13T14:44:47.253Z,16.35
2023-05-13T14:47:19.195Z,16.38
2023-05-13T14:49:50.930Z,16.38
2023-05-13T14:52:22.697Z,16.36
2023-05-13T14:54:54.419Z,16.35
2023-05-13T14:57:26.284Z,16.37
2023-05-13T14:59:59.862Z,16.31
2023-05-13T15:02:34.880Z,16.35
2023-05-13T15:05:07.329Z,16.34
2023-05-13T15:07:39.243Z,16.31
2023-05-13T15:10:11.161Z,16.35
2023-05-13T15:12:44.922Z,16.36
2023-05-13T15:15:16.878Z,16.31
2023-05-13T15:17:51.367Z,16.33
2023-05-13T15:20:23.301Z,16.32
2023-05-13T15:22:55.787Z,16.29
2023-05-13T15:25:27.532Z,16.27
2023-05-13T15:27:59.296Z,16.32
2023-05-13T15:30:31.447Z,16.36
2023-05-13T15:33:04.283Z,16.41
2023-05-13T15:35:36.464Z,16.45
2023-05-13T15:38:08.503Z,16.47
2023-05-13T15:40:40.399Z,16.50
2023-05-13T15:43:12.494Z,16.51
2023-05-13T15:45:44.398Z,16.53
2023-05-13T15:48:17.448Z,16.54
2023-05-13T15:50:49.308Z,16.58
2023-05-13T15:53:21.042Z,16.49
2023-05-13T15:55:52.829Z,16.47
2023-05-13T15:58:24.528Z,16.44
2023-05-13T16:00:56.236Z,16.42
2023-05-13T16:03:29.044Z,16.38
2023-05-13T16:06:00.931Z,16.35
2023-05-13T16:08:32.984Z,16.27
2023-05-13T16:11:04.872Z,16.28
2023-05-13T16:13:36.617Z,16.27
2023-05-13T16:16:08.473Z,16.32
2023-05-13T16:18:40.291Z,16.37
2023-05-13T16:21:12.089Z,16.40
2023-05-13T16:23:43.848Z,16.37
2023-05-13T16:26:15.633Z,16.33
2023-05-13T16:28:47.320Z,16.35
2023-05-13T16:31:21.534Z,16.38
2023-05-13T16:33:53.321Z,16.35
2023-05-13T16:36:26.684Z,16.39
2023-05-13T16:38:58.497Z,16.40
2023-05-13T16:41:30.213Z,16.43
2023-05-13T16:44:02.195Z,16.43
2023-05-13T16:46:35.579Z,16.46
2023-05-13T16:49:07.516Z,16.49
2023-05-13T16:51:39.385Z,16.43
2023-05-13T16:54:11.233Z,16.48
2023-05-13T16:56:43.215Z,16.51
2023-05-13T16:59:25.598Z,16.53
2023-05-13T17:02:00.008Z,16.57
2023-05-13T17:04:31.844Z,16.50
2023-05-13T17:07:03.589Z,16.46
2023-05-13T17:09:35.492Z,16.40
2023-05-13T17:12:08.591Z,16.38
2023-05-13T17:14:41.898Z,16.32
2023-05-13T17:17:14.010Z,16.36
2023-05-13T17:19:46.042Z,16.43
2023-05-13T17:22:22.329Z,16.47
2023-05-13T17:24:54.087Z,16.39
2023-05-13T17:27:26.020Z,16.39
2023-05-13T17:29:57.770Z,16.41
2023-05-13T17:32:31.743Z,16.38
2023-05-13T17:35:04.872Z,16.33
2023-05-13T17:37:36.736Z,16.30
2023-05-13T17:40:09.400Z,16.29
2023-05-13T17:42:41.173Z,16.29
2023-05-13T17:45:12.942Z,16.28
2023-05-13T17:47:44.812Z,16.19
2023-05-13T17:50:18.299Z,16.22
2023-05-13T17:52:51.039Z,16.18
2023-05-13T17:55:25.436Z,16.14
2023-05-13T17:57:57.450Z,16.11
2023-05-13T18:00:29.276Z,16.13
2023-05-13T18:03:01.012Z,16.11
2023-05-13T18:05:32.963Z,16.07
2023-05-13T18:08:04.940Z,15.99
2023-05-13T18:10:36.906Z,15.98
2023-05-13T18:13:08.613Z,15.96
2023-05-13T18:15:40.452Z,15.91
2023-05-13T18:18:13.388Z,15.91
2023-05-13T18:20:45.412Z,15.87
2023-05-13T18:23:17.940Z,15.87
2023-05-13T18:25:55.916Z,15.82
2023-05-13T18:28:29.562Z,15.80
2023-05-13T18:31:01.356Z,15.79
2023-05-13T18:33:33.333Z,15.79
2023-05-13T18:36:11.438Z,15.77
2023-05-13T18:38:45.421Z,15.72
2023-05-13T18:41:17.219Z,15.70
2023-05-13T18:43:51.525Z,15.71
2023-05-13T18:46:23.345Z,15.70
2023-05-13T18:48:57.262Z,15.65
2023-05-13T18:51:29.162Z,15.60
2023-05-13T18:54:24.194Z,15.60
2023-05-13T18:56:56.429Z,15.59
2023-05-13T18:59:28.258Z,15.61
2023-05-13T19:02:00.226Z,15.61
2023-05-13T19:04:32.401Z,15.61
2023-05-13T19:07:04.352Z,15.60
2023-05-13T19:09:37.077Z,15.59
2023-05-13T19:12:08.937Z,15.54
2023-05-13T19:14:40.886Z,15.53
2023-05-13T19:17:12.932Z,15.47
2023-05-13T19:19:44.778Z,15.43
2023-05-13T19:22:18.780Z,15.43
2023-05-13T19:24:50.575Z,15.43
2023-05-13T19:27:22.433Z,15.38
2023-05-13T19:29:54.167Z,15.39
2023-05-13T19:32:26.271Z,15.40
2023-05-13T19:34:58.021Z,15.35
2023-05-13T19:37:30.845Z,15.35
2023-05-13T19:40:02.728Z,15.33
2023-05-13T19:42:34.611Z,15.31
2023-05-13T19:45:07.048Z,15.32
2023-05-13T19:47:39.305Z,15.30
2023-05-13T19:50:11.276Z,15.28
2023-05-13T19:52:43.758Z,15.26
2023-05-13T19:55:15.494Z,15.23
2023-05-13T19:57:47.840Z,15.22
2023-05-13T20:00:20.837Z,15.19
2023-05-13T20:02:52.740Z,15.20
2023-05-13T20:05:24.737Z,15.19
2023-05-13T20:07:57.012Z,15.16
2023-05-13T20:10:30.936Z,15.11
2023-05-13T20:13:04.836Z,15.07
2023-05-13T20:15:36.963Z,15.08
2023-05-13T20:18:08.911Z,15.06
2023-05-13T20:20:41.741Z,15.07
2023-05-13T20:23:14.628Z,15.06
2023-05-13T20:25:47.320Z,15.04
2023-05-13T20:28:19.164Z,15.00
2023-05-13T20:30:54.226Z,14.98
2023-05-13T20:33:26.016Z,14.96
2023-05-13T20:35:58.446Z,14.95
2023-05-13T20:38:30.224Z,14.94
2023-05-13T20:41:01.925Z,14.88
2023-05-13T20:43:35.996Z,14.90
2023-05-13T20:46:08.061Z,14.87
2023-05-13T20:48:39.969Z,14.83
2023-05-13T20:51:11.877Z,14.79
2023-05-13T20:53:43.702Z,14.74
2023-05-13T20:56:15.490Z,14.72
2023-05-13T20:58:47.266Z,14.66
2023-05-13T21:01:19.430Z,14.66
2023-05-13T21:03:51.353Z,14.65
2023-05-13T21:06:23.427Z,14.63
2023-05-13T21:08:55.526Z,14.60
2023-05-13T21:11:27.377Z,14.59
2023-05-13T21:13:59.176Z,14.58
2023-05-13T21:16:33.991Z,14.59
2023-05-13T21:19:05.834Z,14.55
2023-05-13T21:21:37.739Z,14.50
2023-05-13T21:24:09.877Z,14.49
2023-05-13T21:26:41.769Z,14.46
2023-05-13T21:29:13.626Z,14.43
2023-05-13T21:31:46.296Z,14.41
2023-05-13T21:34:18.131Z,14.33
2023-05-13T21:36:52.849Z,14.30
2023-05-13T21:39:27.421Z,14.31
2023-05-13T21:42:00.981Z,14.33
2023-05-13T21:44:32.850Z,14.33
2023-05-13T21:47:04.800Z,14.30
2023-05-13T21:49:36.596Z,14.22
2023-05-13T21:52:08.311Z,14.13
2023-05-13T21:54:40.169Z,14.13
2023-05-13T21:57:12.180Z,14.18
2023-05-13T21:59:44.315Z,14.20
2023-05-13T22:02:16.814Z,14.23
2023-05-13T22:04:48.566Z,14.26
2023-05-13T22:07:20.300Z,14.27
2023-05-13T22:09:52.198Z,14.25
2023-05-13T22:12:24.112Z,14.27
2023-05-13T22:14:55.968Z,14.29
2023-05-13T22:17:27.894Z,14.31
2023-05-13T22:19:59.754Z,14.30
2023-05-13T22:22:31.498Z,14.30
2023-05-13T22:25:03.521Z,14.30
2023-05-13T22:27:35.655Z,14.30
2023-05-13T22:30:07.993Z,14.30
2023-05-13T22:32:40.198Z,14.32
2023-05-13T22:35:11.977Z,14.32
2023-05-13T22:37:43.733Z,14.33
2023-05-13T22:40:15.523Z,14.33
2023-05-13T22:42:47.289Z,14.33
2023-05-13T22:45:19.151Z,14.35
2023-05-13T22:47:50.998Z,14.34
2023-05-13T22:50:23.283Z,14.32
2023-05-13T22:52:56.212Z,14.29
2023-05-13T22:55:27.928Z,14.29
2023-05-13T22:57:59.672Z,14.28
2023-05-13T23:00:31.499Z,14.28
2023-05-13T23:03:03.332Z,14.29
2023-05-13T23:05:35.316Z,14.28
2023-05-13T23:08:07.075Z,14.25
2023-05-13T23:10:38.795Z,14.21
2023-05-13T23:13:10.669Z,14.17
2023-05-13T23:15:42.714Z,14.14
2023-05-13T23:18:14.454Z,14.11
2023-05-13T23:20:51.102Z,14.09
2023-05-13T23:23:26.632Z,14.10
2023-05-13T23:25:58.396Z,14.08
2023-05-13T23:28:30.258Z,14.09
2023-05-13T23:31:02.018Z,14.08
2023-05-13T23:33:33.809Z,14.06
2023-05-13T23:36:05.898Z,14.06
2023-05-13T23:38:37.604Z,14.07
2023-05-13T23:41:09.343Z,14.08
2023-05-13T23:43:42.218Z,14.10
2023-05-13T23:46:14.121Z,14.10
2023-05-13T23:48:45.930Z,14.06
2023-05-13T23:51:17.663Z,14.03
2023-05-13T23:53:49.552Z,13.99
2023-05-13T23:56:24.222Z,13.94
2023-05-13T23:58:55.798Z,13.90
